Four Marks, United Kingdom
Current Conditions -  °F | °C
As of 6:50 PM on Thursday 30 Oct 2014 (Local Time) from EGVO Reporting Station
Haze Haze  
Wind Chill: 57°   Ceiling: Unl
Heat Index: 57°   Visibility: 2.5mi
Dew Point: 55°   Wind: 12mph
Humidity: 94%   Direction: 150°SSE
Pressure: 30.06"   Gusts: NA
Location:  51.11°N, 1.05°W
Report Text: EGVO 301850Z 15010KT 4000 BR FEW004 SCT200 14/13 Q1018 GRN TEMPO 3000 YLO1
Loading
Personal Weather Stations






























Interactive Weather Map New forecast layout! Learn more

10-Day Weather Forecast

Advertisements
Track Severe Weather on mobile